createdAt,value
2018-09-22T00:00:49.638Z,987.109
2018-09-22T00:02:49.746Z,987.161
2018-09-22T00:04:50.207Z,987.272
2018-09-22T00:06:50.278Z,987.281
2018-09-22T00:08:50.344Z,987.303
2018-09-22T00:10:50.348Z,987.384
2018-09-22T00:12:50.434Z,987.420
2018-09-22T00:14:50.438Z,987.411
2018-09-22T00:16:49.682Z,987.435
2018-09-22T00:18:49.778Z,987.467
2018-09-22T00:20:49.792Z,987.482
2018-09-22T00:22:49.879Z,987.510
2018-09-22T00:24:49.880Z,987.520
2018-09-22T00:26:50.232Z,987.539
2018-09-22T00:28:50.167Z,987.519
2018-09-22T00:30:50.241Z,987.507
2018-09-22T00:32:50.213Z,987.488
2018-09-22T00:34:50.502Z,987.527
2018-09-22T00:36:49.790Z,987.560
2018-09-22T00:38:49.901Z,987.516
2018-09-22T00:40:49.916Z,987.530
2018-09-22T00:42:49.938Z,987.543
2018-09-22T00:44:49.963Z,987.548
2018-09-22T00:46:50.134Z,987.562
2018-09-22T00:48:50.206Z,987.545
2018-09-22T00:50:50.133Z,987.549
2018-09-22T00:52:50.166Z,987.582
2018-09-22T00:54:50.150Z,987.604
2018-09-22T00:56:50.235Z,987.629
2018-09-22T00:58:50.271Z,987.632
2018-09-22T01:00:50.333Z,987.652
2018-09-22T01:02:50.292Z,987.670
2018-09-22T01:04:50.593Z,987.715
2018-09-22T01:06:49.848Z,987.771
2018-09-22T01:08:49.836Z,987.795
2018-09-22T01:10:49.824Z,987.796
2018-09-22T01:12:49.813Z,987.818
2018-09-22T01:14:49.773Z,987.844
2018-09-22T01:16:50.121Z,987.857
2018-09-22T01:18:50.080Z,987.850
2018-09-22T01:20:50.051Z,987.861
2018-09-22T01:22:50.108Z,987.883
2018-09-22T01:24:50.070Z,987.911
2018-09-22T01:26:50.226Z,987.923
2018-09-22T01:28:50.444Z,987.954
2018-09-22T01:30:50.410Z,987.998
2018-09-22T01:32:50.454Z,988.031
2018-09-22T01:34:49.693Z,988.083
2018-09-22T01:36:50.032Z,988.135
2018-09-22T01:38:50.011Z,988.172
2018-09-22T01:40:50.014Z,988.223
2018-09-22T01:42:50.068Z,988.255
2018-09-22T01:44:50.137Z,988.291
2018-09-22T01:46:50.441Z,988.318
2018-09-22T01:48:50.532Z,988.353
2018-09-22T01:50:50.462Z,988.355
2018-09-22T01:52:50.557Z,988.351
2018-09-22T01:54:50.533Z,988.332
2018-09-22T01:56:49.774Z,988.343
2018-09-22T01:58:49.894Z,988.389
2018-09-22T02:00:49.894Z,988.395
2018-09-22T02:02:49.911Z,988.382
2018-09-22T02:04:50.254Z,988.372
2018-09-22T02:06:50.424Z,988.360
2018-09-22T02:08:49.796Z,988.388
2018-09-22T02:10:49.799Z,988.414
2018-09-22T02:12:49.875Z,988.403
2018-09-22T02:14:49.852Z,988.386
2018-09-22T02:16:50.222Z,988.384
2018-09-22T02:18:50.160Z,988.392
2018-09-22T02:20:50.248Z,988.396
2018-09-22T02:22:50.289Z,988.369
2018-09-22T02:24:50.269Z,988.353
2018-09-22T02:26:50.368Z,988.330
2018-09-22T02:28:50.402Z,988.338
2018-09-22T02:30:50.383Z,988.338
2018-09-22T02:32:50.444Z,988.393
2018-09-22T02:34:49.906Z,988.396
2018-09-22T02:36:50.226Z,988.388
2018-09-22T02:38:50.256Z,988.411
2018-09-22T02:40:50.269Z,988.424
2018-09-22T02:42:50.279Z,988.434
2018-09-22T02:44:50.404Z,988.421
2018-09-22T02:46:50.586Z,988.416
2018-09-22T02:48:49.612Z,988.474
2018-09-22T02:50:50.604Z,988.493
2018-09-22T02:52:49.743Z,988.529
2018-09-22T02:54:49.845Z,988.591
2018-09-22T02:56:50.088Z,988.630
2018-09-22T02:58:50.089Z,988.642
2018-09-22T03:00:50.204Z,988.666
2018-09-22T03:02:50.255Z,988.707
2018-09-22T03:04:49.631Z,988.735
2018-09-22T03:06:50.328Z,988.729
2018-09-22T03:08:49.971Z,988.746
2018-09-22T03:10:50.348Z,988.741
2018-09-22T03:12:50.281Z,988.745
2018-09-22T03:14:50.274Z,988.775
2018-09-22T03:16:50.379Z,988.809
2018-09-22T03:18:50.399Z,988.820
2018-09-22T03:20:50.509Z,988.827
2018-09-22T03:22:50.607Z,988.817
2018-09-22T03:24:49.658Z,988.784
2018-09-22T03:26:49.908Z,988.736
2018-09-22T03:28:49.927Z,988.736
2018-09-22T03:30:49.929Z,988.718
2018-09-22T03:32:50.047Z,988.712
2018-09-22T03:34:50.483Z,988.685
2018-09-22T03:36:49.746Z,988.680
2018-09-22T03:38:49.804Z,988.680
2018-09-22T03:40:49.808Z,988.778
2018-09-22T03:42:49.918Z,988.848
2018-09-22T03:44:49.943Z,988.869
2018-09-22T03:46:50.177Z,988.861
2018-09-22T03:48:50.134Z,988.830
2018-09-22T03:50:50.065Z,988.813
2018-09-22T03:52:50.014Z,988.860
2018-09-22T03:54:50.090Z,988.876
2018-09-22T03:56:50.263Z,988.876
2018-09-22T04:00:49.909Z,988.903
2018-09-22T04:02:49.919Z,988.912
2018-09-22T04:04:50.195Z,988.913
2018-09-22T04:06:50.384Z,988.933
2018-09-22T04:08:50.371Z,988.905
2018-09-22T04:10:50.305Z,988.897
2018-09-22T04:12:50.320Z,988.839
2018-09-22T04:14:50.352Z,988.832
2018-09-22T04:16:50.562Z,988.852
2018-09-22T04:18:50.597Z,988.842
2018-09-22T04:20:49.671Z,988.833
2018-09-22T04:22:49.672Z,988.811
2018-09-22T04:24:49.659Z,988.838
2018-09-22T04:26:50.385Z,988.884
2018-09-22T04:28:50.376Z,988.971
2018-09-22T04:30:50.386Z,988.984
2018-09-22T04:32:50.372Z,988.976
2018-09-22T04:34:49.910Z,988.915
2018-09-22T04:36:50.039Z,988.880
2018-09-22T04:38:50.119Z,988.923
2018-09-22T04:40:50.218Z,988.960
2018-09-22T04:42:50.405Z,988.880
2018-09-22T04:44:50.373Z,988.829
2018-09-22T04:46:49.614Z,988.871
2018-09-22T04:48:49.689Z,989.001
2018-09-22T04:50:49.695Z,989.058
2018-09-22T04:52:49.919Z,989.140
2018-09-22T04:54:49.876Z,989.075
2018-09-22T04:56:50.009Z,989.075
2018-09-22T04:58:49.982Z,988.989
2018-09-22T05:00:49.976Z,989.004
2018-09-22T05:02:50.040Z,989.041
2018-09-22T05:04:50.403Z,989.054
2018-09-22T05:06:50.551Z,989.074
2018-09-22T05:08:50.603Z,989.131
2018-09-22T05:10:49.668Z,989.171
2018-09-22T05:12:49.633Z,989.169
2018-09-22T05:14:49.706Z,989.174
2018-09-22T05:16:49.940Z,989.169
2018-09-22T05:18:49.927Z,989.197
2018-09-22T05:20:49.869Z,989.230
2018-09-22T05:22:49.907Z,989.230
2018-09-22T05:24:50.200Z,989.288
2018-09-22T05:26:49.763Z,989.276
2018-09-22T05:28:49.804Z,989.296
2018-09-22T05:30:49.943Z,989.296
2018-09-22T05:32:50.005Z,989.334
2018-09-22T05:34:50.210Z,989.381
2018-09-22T05:36:49.784Z,989.414
2018-09-22T05:38:49.873Z,989.418
2018-09-22T05:40:49.947Z,989.420
2018-09-22T05:42:49.939Z,989.438
2018-09-22T05:44:49.980Z,989.485
2018-09-22T05:46:50.211Z,989.496
2018-09-22T05:48:50.431Z,989.504
2018-09-22T05:50:50.421Z,989.509
2018-09-22T05:52:50.513Z,989.521
2018-09-22T05:54:50.627Z,989.573
2018-09-22T05:56:50.055Z,989.661
2018-09-22T05:58:50.214Z,989.670
2018-09-22T06:00:50.185Z,989.679
2018-09-22T06:02:50.270Z,989.674
2018-09-22T06:04:49.687Z,989.610
2018-09-22T06:06:49.944Z,989.606
2018-09-22T06:08:49.904Z,989.630
2018-09-22T06:10:50.067Z,989.653
2018-09-22T06:12:50.025Z,989.708
2018-09-22T06:14:50.086Z,989.740
2018-09-22T06:16:50.262Z,989.790
2018-09-22T06:18:50.220Z,989.839
2018-09-22T06:20:50.264Z,989.870
2018-09-22T06:22:50.280Z,989.865
2018-09-22T06:24:50.331Z,989.855
2018-09-22T06:26:50.527Z,989.909
2018-09-22T06:28:50.690Z,989.945
2018-09-22T06:30:50.018Z,989.999
2018-09-22T06:32:50.046Z,990.098
2018-09-22T06:34:50.375Z,990.083
2018-09-22T06:36:50.532Z,990.023
2018-09-22T06:38:50.706Z,989.998
2018-09-22T06:40:49.891Z,989.998
2018-09-22T06:42:49.869Z,989.992
2018-09-22T06:44:49.916Z,989.996
2018-09-22T06:46:50.094Z,990.017
2018-09-22T06:48:50.144Z,990.050
2018-09-22T06:50:50.157Z,990.090
2018-09-22T06:52:50.190Z,990.126
2018-09-22T06:54:50.476Z,990.135
2018-09-22T06:56:49.698Z,990.121
2018-09-22T06:58:49.757Z,990.077
2018-09-22T07:00:49.924Z,990.079
2018-09-22T07:02:49.957Z,990.140
2018-09-22T07:04:50.262Z,990.158
2018-09-22T07:06:50.382Z,990.168
2018-09-22T07:08:50.297Z,990.158
2018-09-22T07:10:50.389Z,990.201
2018-09-22T07:12:49.623Z,990.256
2018-09-22T07:14:49.668Z,990.299
2018-09-22T07:16:49.939Z,990.437
2018-09-22T07:18:49.922Z,990.411
2018-09-22T07:20:50.001Z,990.232
2018-09-22T07:22:50.133Z,990.241
2018-09-22T07:24:50.020Z,990.240
2018-09-22T07:26:50.207Z,990.211
2018-09-22T07:28:50.169Z,990.275
2018-09-22T07:30:50.519Z,990.331
2018-09-22T07:32:49.863Z,990.350
2018-09-22T07:34:50.320Z,990.394
2018-09-22T07:36:50.625Z,990.394
2018-09-22T07:38:49.647Z,990.397
2018-09-22T07:40:49.736Z,990.412
2018-09-22T07:42:49.691Z,990.412
2018-09-22T07:44:49.776Z,990.440
2018-09-22T07:46:49.972Z,990.409
2018-09-22T07:48:50.151Z,990.399
2018-09-22T07:50:50.166Z,990.392
2018-09-22T07:52:50.174Z,990.385
2018-09-22T07:54:50.198Z,990.375
2018-09-22T07:56:50.358Z,990.375
2018-09-22T07:58:50.382Z,990.356
2018-09-22T08:00:50.453Z,990.417
2018-09-22T08:02:50.571Z,990.421
2018-09-22T08:04:49.795Z,990.406
2018-09-22T08:06:50.120Z,990.343
2018-09-22T08:08:50.137Z,990.270
2018-09-22T08:10:50.238Z,990.218
2018-09-22T08:12:50.469Z,990.196
2018-09-22T08:14:50.474Z,990.212
2018-09-22T08:16:49.700Z,990.212
2018-09-22T08:18:49.737Z,990.216
2018-09-22T08:20:49.749Z,990.220
2018-09-22T08:22:49.892Z,990.228
2018-09-22T08:24:49.844Z,990.205
2018-09-22T08:26:50.086Z,990.160
2018-09-22T08:28:50.116Z,990.133
2018-09-22T08:30:50.159Z,990.124
2018-09-22T08:32:50.125Z,990.092
2018-09-22T08:34:50.451Z,990.104
2018-09-22T08:36:50.464Z,990.080
2018-09-22T08:38:49.985Z,990.074
2018-09-22T08:40:50.210Z,990.084
2018-09-22T08:42:50.265Z,990.123
2018-09-22T08:44:50.436Z,990.150
2018-09-22T08:46:49.812Z,990.195
2018-09-22T08:48:49.859Z,990.165
2018-09-22T08:50:49.882Z,990.175
2018-09-22T08:52:49.863Z,990.172
2018-09-22T08:54:49.825Z,990.209
2018-09-22T08:56:49.982Z,990.225
2018-09-22T08:58:49.981Z,990.324
2018-09-22T09:00:49.976Z,990.360
2018-09-22T09:02:50.037Z,990.388
2018-09-22T09:04:50.406Z,990.408
2018-09-22T09:06:49.685Z,990.425
2018-09-22T09:08:49.718Z,990.450
2018-09-22T09:10:49.654Z,990.466
2018-09-22T09:12:49.893Z,990.446
2018-09-22T09:14:50.021Z,990.464
2018-09-22T09:16:50.234Z,990.427
2018-09-22T09:18:50.186Z,990.449
2018-09-22T09:20:50.182Z,990.435
2018-09-22T09:22:50.257Z,990.415
2018-09-22T09:24:50.287Z,990.425
2018-09-22T09:26:50.508Z,990.443
2018-09-22T09:28:50.481Z,990.434
2018-09-22T09:30:50.437Z,990.404
2018-09-22T09:32:50.434Z,990.380
2018-09-22T09:34:49.945Z,990.330
2018-09-22T09:36:50.133Z,990.330
2018-09-22T09:38:50.077Z,990.334
2018-09-22T09:40:50.091Z,990.289
2018-09-22T09:42:50.218Z,990.197
2018-09-22T09:44:50.209Z,990.147
2018-09-22T09:46:50.463Z,990.096
2018-09-22T09:48:50.575Z,990.024
2018-09-22T09:50:49.645Z,989.984
2018-09-22T09:52:49.628Z,989.957
2018-09-22T09:54:49.824Z,989.968
2018-09-22T09:56:50.196Z,989.985
2018-09-22T09:58:50.160Z,990.013
2018-09-22T10:00:50.147Z,990.078
2018-09-22T10:02:50.163Z,990.120
2018-09-22T10:04:50.480Z,990.158
2018-09-22T10:06:49.742Z,990.159
2018-09-22T10:08:49.679Z,990.172
2018-09-22T10:10:49.799Z,990.171
2018-09-22T10:12:49.757Z,990.167
2018-09-22T10:14:49.751Z,990.092
2018-09-22T10:16:49.969Z,990.077
2018-09-22T10:18:49.942Z,990.046
2018-09-22T10:20:49.981Z,989.984
2018-09-22T10:22:49.999Z,989.951
2018-09-22T10:24:50.111Z,989.905
2018-09-22T10:26:50.243Z,989.861
2018-09-22T10:28:50.606Z,989.867
2018-09-22T10:30:50.005Z,989.818
2018-09-22T10:32:50.015Z,989.681
2018-09-22T10:34:50.320Z,989.627
2018-09-22T10:36:49.633Z,989.555
2018-09-22T10:38:49.712Z,989.567
2018-09-22T10:40:49.698Z,989.534
2018-09-22T10:42:49.796Z,989.535
2018-09-22T10:44:49.810Z,989.568
2018-09-22T10:46:49.955Z,989.524
2018-09-22T10:48:50.088Z,989.516
2018-09-22T10:50:50.085Z,989.550
2018-09-22T10:52:50.591Z,989.572
2018-09-22T10:54:50.154Z,989.614
2018-09-22T10:56:50.348Z,989.591
2018-09-22T10:58:50.466Z,989.638
2018-09-22T11:00:50.609Z,989.736
2018-09-22T11:02:49.778Z,989.729
2018-09-22T11:04:50.118Z,989.669
2018-09-22T11:06:50.278Z,989.669
2018-09-22T11:08:50.303Z,989.515
2018-09-22T11:10:50.392Z,989.449
2018-09-22T11:12:50.460Z,989.432
2018-09-22T11:14:50.487Z,989.450
2018-09-22T11:16:49.634Z,989.450
2018-09-22T11:18:49.769Z,989.509
2018-09-22T11:20:49.786Z,989.490
2018-09-22T11:22:49.780Z,989.490
2018-09-22T11:24:49.924Z,989.339
2018-09-22T11:26:50.255Z,989.297
2018-09-22T11:28:50.432Z,989.270
2018-09-22T11:30:50.439Z,989.266
2018-09-22T11:32:50.567Z,989.314
2018-09-22T11:34:49.794Z,989.314
2018-09-22T11:36:50.209Z,989.359
2018-09-22T11:38:50.214Z,989.335
2018-09-22T11:40:50.233Z,989.302
2018-09-22T11:42:50.316Z,989.290
2018-09-22T11:44:50.358Z,989.276
2018-09-22T11:46:50.565Z,989.241
2018-09-22T11:48:49.767Z,989.172
2018-09-22T11:50:49.767Z,989.163
2018-09-22T11:52:49.870Z,989.127
2018-09-22T11:54:49.825Z,988.947
2018-09-22T11:56:50.135Z,988.832
2018-09-22T11:58:50.193Z,988.783
2018-09-22T12:00:50.213Z,988.704
2018-09-22T12:02:50.205Z,988.708
2018-09-22T12:04:50.596Z,988.847
2018-09-22T12:06:50.539Z,988.858
2018-09-22T12:08:49.909Z,988.906
2018-09-22T12:10:49.910Z,988.898
2018-09-22T12:12:49.930Z,988.873
2018-09-22T12:14:49.970Z,988.838
2018-09-22T12:16:50.140Z,988.818
2018-09-22T12:18:50.197Z,988.759
2018-09-22T12:20:50.215Z,988.762
2018-09-22T12:22:50.243Z,988.829
2018-09-22T12:24:50.248Z,988.896
2018-09-22T12:26:50.445Z,988.902
2018-09-22T12:28:50.516Z,988.859
2018-09-22T12:30:49.891Z,988.808
2018-09-22T12:32:50.204Z,988.808
2018-09-22T12:34:50.533Z,988.711
2018-09-22T12:36:49.773Z,988.672
2018-09-22T12:38:49.778Z,988.665
2018-09-22T12:40:49.751Z,988.622
2018-09-22T12:42:49.910Z,988.620
2018-09-22T12:44:50.043Z,988.603
2018-09-22T12:46:50.201Z,988.572
2018-09-22T12:48:50.170Z,988.557
2018-09-22T12:50:50.157Z,988.537
2018-09-22T12:52:50.167Z,988.537
2018-09-22T12:54:50.109Z,988.414
2018-09-22T12:56:50.326Z,988.400
2018-09-22T12:58:50.352Z,988.414
2018-09-22T13:00:50.423Z,988.432
2018-09-22T13:02:50.431Z,988.438
2018-09-22T13:04:49.712Z,988.416
2018-09-22T13:06:49.891Z,988.416
2018-09-22T13:08:49.915Z,988.358
2018-09-22T13:10:49.895Z,988.327
2018-09-22T13:12:49.900Z,988.237
2018-09-22T13:14:49.861Z,988.141
2018-09-22T13:16:50.151Z,988.067
2018-09-22T13:18:50.156Z,987.977
2018-09-22T13:20:50.128Z,987.956
2018-09-22T13:22:50.114Z,987.883
2018-09-22T13:24:50.105Z,987.812
2018-09-22T13:26:50.489Z,987.806
2018-09-22T13:28:49.837Z,987.834
2018-09-22T13:30:49.797Z,987.844
2018-09-22T13:32:49.897Z,987.903
2018-09-22T13:34:50.229Z,987.912
2018-09-22T13:36:50.440Z,987.872
2018-09-22T13:38:50.365Z,987.819
2018-09-22T13:40:50.394Z,987.782
2018-09-22T13:42:50.327Z,987.733
2018-09-22T13:44:50.339Z,987.743
2018-09-22T13:46:50.591Z,987.737
2018-09-22T13:48:49.774Z,987.738
2018-09-22T13:50:50.118Z,987.700
2018-09-22T13:52:50.288Z,987.665
2018-09-22T13:54:50.505Z,987.654
2018-09-22T13:56:49.626Z,987.670
2018-09-22T13:58:49.678Z,987.721
2018-09-22T14:00:49.743Z,987.762
2018-09-22T14:02:49.900Z,987.781
2018-09-22T14:04:50.150Z,987.812
2018-09-22T14:06:50.323Z,987.817
2018-09-22T14:08:50.297Z,987.799
2018-09-22T14:10:50.337Z,987.825
2018-09-22T14:12:50.268Z,987.841
2018-09-22T14:14:50.312Z,987.818
2018-09-22T14:16:50.489Z,987.809
2018-09-22T14:18:50.481Z,987.829
2018-09-22T14:20:50.473Z,987.826
2018-09-22T14:22:50.525Z,987.811
2018-09-22T14:24:50.453Z,987.804
2018-09-22T14:26:49.774Z,987.795
2018-09-22T14:28:50.210Z,987.762
2018-09-22T14:30:50.221Z,987.745
2018-09-22T14:32:50.386Z,987.745
2018-09-22T14:34:49.850Z,987.715
2018-09-22T14:36:50.108Z,987.690
2018-09-22T14:38:50.140Z,987.679
2018-09-22T14:40:50.140Z,987.673
2018-09-22T14:42:50.317Z,987.667
2018-09-22T14:44:50.438Z,987.657
2018-09-22T14:46:49.668Z,987.638
2018-09-22T14:48:49.755Z,987.525
2018-09-22T14:50:49.783Z,987.492
2018-09-22T14:52:49.898Z,987.406
2018-09-22T14:54:49.936Z,987.395
2018-09-22T14:56:50.102Z,987.377
2018-09-22T14:58:50.145Z,987.316
2018-09-22T15:00:50.145Z,987.251
2018-09-22T15:02:50.252Z,987.187
2018-09-22T15:04:50.587Z,987.225
2018-09-22T15:06:49.850Z,987.254
2018-09-22T15:08:49.900Z,987.233
2018-09-22T15:10:50.078Z,987.268
2018-09-22T15:12:50.152Z,987.263
2018-09-22T15:14:50.189Z,987.233
2018-09-22T15:16:50.467Z,987.221
2018-09-22T15:18:50.444Z,987.232
2018-09-22T15:20:49.664Z,987.204
2018-09-22T15:22:49.887Z,987.107
2018-09-22T15:24:49.921Z,987.050
2018-09-22T15:26:49.988Z,987.067
2018-09-22T15:28:49.979Z,987.012
2018-09-22T15:30:49.997Z,987.010
2018-09-22T15:32:49.944Z,987.069
2018-09-22T15:34:50.195Z,987.039
2018-09-22T15:36:50.564Z,987.019
2018-09-22T15:38:49.698Z,987.069
2018-09-22T15:40:49.754Z,987.067
2018-09-22T15:42:49.817Z,987.092
2018-09-22T15:44:49.931Z,987.088
2018-09-22T15:46:50.088Z,987.030
2018-09-22T15:48:50.189Z,987.016
2018-09-22T15:50:50.274Z,987.037
2018-09-22T15:52:50.214Z,987.070
2018-09-22T15:54:50.273Z,987.070
2018-09-22T15:56:49.805Z,987.089
2018-09-22T15:58:50.049Z,987.088
2018-09-22T16:00:50.431Z,987.092
2018-09-22T16:02:49.676Z,987.092
2018-09-22T16:04:50.038Z,987.022
2018-09-22T16:06:50.243Z,986.983
2018-09-22T16:08:50.634Z,986.999
2018-09-22T16:10:49.809Z,987.009
2018-09-22T16:12:49.784Z,987.061
2018-09-22T16:14:49.786Z,987.057
2018-09-22T16:16:50.198Z,987.043
2018-09-22T16:18:50.199Z,986.991
2018-09-22T16:20:50.137Z,986.934
2018-09-22T16:22:50.174Z,986.875
2018-09-22T16:24:50.158Z,986.855
2018-09-22T16:26:50.420Z,986.770
2018-09-22T16:28:50.521Z,986.693
2018-09-22T16:30:50.540Z,986.503
2018-09-22T16:32:49.669Z,986.459
2018-09-22T16:34:49.976Z,986.361
2018-09-22T16:36:50.162Z,986.359
2018-09-22T16:38:50.198Z,986.468
2018-09-22T16:40:50.248Z,986.609
2018-09-22T16:42:50.247Z,986.634
2018-09-22T16:44:50.348Z,986.578
2018-09-22T16:46:50.494Z,986.534
2018-09-22T16:48:50.631Z,986.487
2018-09-22T16:50:49.753Z,986.526
2018-09-22T16:52:49.871Z,986.546
2018-09-22T16:54:49.848Z,986.558
2018-09-22T16:56:50.132Z,986.559
2018-09-22T16:58:50.186Z,986.593
2018-09-22T17:00:50.220Z,986.623
2018-09-22T17:02:50.204Z,986.620
2018-09-22T17:04:49.621Z,986.641
2018-09-22T17:06:49.891Z,986.646
2018-09-22T17:08:49.947Z,986.606
2018-09-22T17:10:50.025Z,986.566
2018-09-22T17:12:50.025Z,986.536
2018-09-22T17:14:50.088Z,986.512
2018-09-22T17:16:50.380Z,986.525
2018-09-22T17:18:50.427Z,986.620
2018-09-22T17:20:50.482Z,986.602
2018-09-22T17:22:49.673Z,986.557
2018-09-22T17:24:49.695Z,986.558
2018-09-22T17:26:49.908Z,986.558
2018-09-22T17:28:50.123Z,986.547
2018-09-22T17:30:50.238Z,986.577
2018-09-22T17:32:50.286Z,986.608
2018-09-22T17:34:49.752Z,986.608
2018-09-22T17:36:50.043Z,986.735
2018-09-22T17:38:50.048Z,986.789
2018-09-22T17:40:50.187Z,986.828
2018-09-22T17:42:50.292Z,986.872
2018-09-22T17:44:50.357Z,986.872
2018-09-22T17:46:50.516Z,986.872
2018-09-22T17:48:49.655Z,986.872
2018-09-22T17:50:49.623Z,986.927
2018-09-22T17:52:49.792Z,986.954
2018-09-22T17:54:49.805Z,986.994
2018-09-22T17:56:50.024Z,987.004
2018-09-22T17:58:50.001Z,987.002
2018-09-22T18:00:49.990Z,987.031
2018-09-22T18:02:49.924Z,987.053
2018-09-22T18:04:50.152Z,987.075
2018-09-22T18:06:50.385Z,987.113
2018-09-22T18:08:50.344Z,987.110
2018-09-22T18:10:50.275Z,987.107
2018-09-22T18:12:50.250Z,987.092
2018-09-22T18:14:50.296Z,987.089
2018-09-22T18:16:50.811Z,987.081
2018-09-22T18:18:50.285Z,987.123
2018-09-22T18:20:50.303Z,987.123
2018-09-22T18:22:49.900Z,987.088
2018-09-22T18:24:49.878Z,987.084
2018-09-22T18:26:50.127Z,987.095
2018-09-22T18:28:50.123Z,987.114
2018-09-22T18:30:50.125Z,987.127
2018-09-22T18:32:50.098Z,987.110
2018-09-22T18:34:49.629Z,987.074
2018-09-22T18:36:49.904Z,987.056
2018-09-22T18:38:49.902Z,987.037
2018-09-22T18:40:49.973Z,987.068
2018-09-22T18:42:49.938Z,987.050
2018-09-22T18:44:49.920Z,987.026
2018-09-22T18:46:50.022Z,987.040
2018-09-22T18:48:49.969Z,987.049
2018-09-22T18:50:49.954Z,987.069
2018-09-22T18:52:49.962Z,987.088
2018-09-22T18:54:49.954Z,987.122
2018-09-22T18:56:50.148Z,987.102
2018-09-22T18:58:50.185Z,987.120
2018-09-22T19:00:50.214Z,987.148
2018-09-22T19:02:50.202Z,987.151
2018-09-22T19:04:49.724Z,987.175
2018-09-22T19:06:49.851Z,987.224
2018-09-22T19:08:49.830Z,987.317
2018-09-22T19:10:49.917Z,987.352
2018-09-22T19:12:50.144Z,987.438
2018-09-22T19:14:50.259Z,987.445
2018-09-22T19:16:50.362Z,987.417
2018-09-22T19:18:50.358Z,987.351
2018-09-22T19:20:50.409Z,987.310
2018-09-22T19:22:50.448Z,987.240
2018-09-22T19:24:50.419Z,987.220
2018-09-22T19:26:49.814Z,987.209
2018-09-22T19:28:49.858Z,987.196
2018-09-22T19:30:49.926Z,987.227
2018-09-22T19:32:49.986Z,987.263
2018-09-22T19:34:50.261Z,987.288
2018-09-22T19:36:50.403Z,987.260
2018-09-22T19:38:50.534Z,987.204
2018-09-22T19:40:50.032Z,987.204
2018-09-22T19:42:50.006Z,987.200
2018-09-22T19:44:50.243Z,987.183
2018-09-22T19:46:49.638Z,987.189
2018-09-22T19:48:49.743Z,987.169
2018-09-22T19:50:50.192Z,987.173
2018-09-22T19:52:50.634Z,987.182
2018-09-22T19:54:50.099Z,987.200
2018-09-22T19:56:50.152Z,987.260
2018-09-22T19:58:50.200Z,987.289
2018-09-22T20:00:50.227Z,987.295
2018-09-22T20:02:50.267Z,987.331
2018-09-22T20:04:50.617Z,987.234
2018-09-22T20:06:49.774Z,987.178
2018-09-22T20:08:49.913Z,987.169
2018-09-22T20:10:49.950Z,987.201
2018-09-22T20:12:49.928Z,987.234
2018-09-22T20:14:49.997Z,987.241
2018-09-22T20:16:50.176Z,987.301
2018-09-22T20:18:50.190Z,987.360
2018-09-22T20:20:50.189Z,987.385
2018-09-22T20:22:50.225Z,987.421
2018-09-22T20:24:50.171Z,987.422
2018-09-22T20:26:50.453Z,987.406
2018-09-22T20:28:50.463Z,987.405
2018-09-22T20:30:49.641Z,987.383
2018-09-22T20:32:49.625Z,987.379
2018-09-22T20:34:50.008Z,987.339
2018-09-22T20:36:50.217Z,987.329
2018-09-22T20:38:50.192Z,987.284
2018-09-22T20:40:50.222Z,987.261
2018-09-22T20:42:50.265Z,987.268
2018-09-22T20:44:50.366Z,987.288
2018-09-22T20:46:50.508Z,987.255
2018-09-22T20:48:50.484Z,987.234
2018-09-22T20:50:50.612Z,987.191
2018-09-22T20:52:49.639Z,987.194
2018-09-22T20:54:49.667Z,987.174
2018-09-22T20:56:50.118Z,987.123
2018-09-22T20:58:50.247Z,987.123
2018-09-22T21:00:50.244Z,987.113
2018-09-22T21:02:50.337Z,987.112
2018-09-22T21:04:49.752Z,987.103
2018-09-22T21:06:50.122Z,987.093
2018-09-22T21:08:50.109Z,987.084
2018-09-22T21:10:50.099Z,987.155
2018-09-22T21:12:50.089Z,987.180
2018-09-22T21:14:50.075Z,987.243
2018-09-22T21:16:50.188Z,987.250
2018-09-22T21:18:50.335Z,987.206
2018-09-22T21:20:49.881Z,987.191
2018-09-22T21:22:49.905Z,987.149
2018-09-22T21:24:49.875Z,987.157
2018-09-22T21:26:50.107Z,987.238
2018-09-22T21:28:50.164Z,987.238
2018-09-22T21:30:50.474Z,987.231
2018-09-22T21:32:49.878Z,987.216
2018-09-22T21:34:50.185Z,987.150
2018-09-22T21:36:50.598Z,987.072
2018-09-22T21:38:49.693Z,987.035
2018-09-22T21:40:49.760Z,986.943
2018-09-22T21:42:49.814Z,986.905
2018-09-22T21:44:49.924Z,986.860
2018-09-22T21:46:50.080Z,986.845
2018-09-22T21:48:50.110Z,986.810
2018-09-22T21:50:50.222Z,986.800
2018-09-22T21:52:50.246Z,986.853
2018-09-22T21:54:50.519Z,986.922
2018-09-22T21:56:50.108Z,986.947
2018-09-22T21:58:50.079Z,986.992
2018-09-22T22:00:50.054Z,986.996
2018-09-22T22:02:50.129Z,987.006
2018-09-22T22:04:50.486Z,987.034
2018-09-22T22:06:49.759Z,987.065
2018-09-22T22:08:49.788Z,987.078
2018-09-22T22:10:49.905Z,987.089
2018-09-22T22:12:49.991Z,987.077
2018-09-22T22:14:50.025Z,987.055
2018-09-22T22:16:50.257Z,987.055
2018-09-22T22:18:50.319Z,987.049
2018-09-22T22:20:50.371Z,987.093
2018-09-22T22:22:50.434Z,987.139
2018-09-22T22:24:50.489Z,987.112
2018-09-22T22:26:49.742Z,987.075
2018-09-22T22:28:49.756Z,987.022
2018-09-22T22:30:49.870Z,987.023
2018-09-22T22:32:49.905Z,987.068
2018-09-22T22:34:50.275Z,987.069
2018-09-22T22:36:50.554Z,987.071
2018-09-22T22:38:50.601Z,987.081
2018-09-22T22:40:49.716Z,987.074
2018-09-22T22:42:49.970Z,987.039
2018-09-22T22:44:49.920Z,987.039
2018-09-22T22:46:50.104Z,987.068
2018-09-22T22:48:50.228Z,987.116
2018-09-22T22:50:50.287Z,987.145
2018-09-22T22:52:50.257Z,987.059
2018-09-22T22:54:50.323Z,987.059
2018-09-22T22:56:50.609Z,987.051
2018-09-22T22:58:49.650Z,987.051
2018-09-22T23:00:49.687Z,986.992
2018-09-22T23:02:49.726Z,986.981
2018-09-22T23:04:50.117Z,986.955
2018-09-22T23:06:50.428Z,986.962
2018-09-22T23:08:50.584Z,986.962
2018-09-22T23:10:49.718Z,986.979
2018-09-22T23:12:49.887Z,986.970
2018-09-22T23:14:49.877Z,986.947
2018-09-22T23:16:50.070Z,986.934
2018-09-22T23:18:50.153Z,986.902
2018-09-22T23:20:50.227Z,986.885
2018-09-22T23:22:50.264Z,986.902
2018-09-22T23:24:50.297Z,986.902
2018-09-22T23:26:50.454Z,986.915
2018-09-22T23:28:50.476Z,986.898
2018-09-22T23:30:50.535Z,986.885
2018-09-22T23:32:50.594Z,986.885
2018-09-22T23:34:50.086Z,986.805
2018-09-22T23:36:50.243Z,986.835
2018-09-22T23:38:50.229Z,986.814
2018-09-22T23:40:50.264Z,986.796
2018-09-22T23:42:50.188Z,986.768
2018-09-22T23:44:50.229Z,986.768
2018-09-22T23:46:50.433Z,986.767
2018-09-22T23:48:50.448Z,986.744
2018-09-22T23:50:50.540Z,986.779
2018-09-22T23:52:50.470Z,986.772
2018-09-22T23:54:49.623Z,986.754
2018-09-22T23:56:50.200Z,986.722
2018-09-22T23:58:50.229Z,986.716
